Time;durP1;ratioP1;P1;durP2;ratioP2;P2;SDS_P1;SDS_P2;PMS_P1;PMS_P2;Temp;Humidity;BMP_temperature;BMP_pressure;BME280_temperature;BME280_humidity;BME280_pressure;Samples;Min_cycle;Max_cycle;Signal;HPM_P1;HPM_P2
2023/09/18 00:01:43;;;;;;;11.65;2.75;;;;;;;;;;5875823;28;20407;-77
2023/09/18 00:04:34;;;;;;;1.23;1.13;;;;;;;;;;5863294;28;20040;-75
2023/09/18 00:07:25;;;;;;;2.67;1.90;;;;;;;;;;5865571;28;20056;-75
2023/09/18 00:10:16;;;;;;;3.78;1.65;;;;;;;;;;5866509;28;20045;-74
2023/09/18 00:13:07;;;;;;;4.80;1.67;;;;;;;;;;5866789;28;20052;-76
2023/09/18 00:15:59;;;;;;;2.45;1.48;;;;;;;;;;5868310;28;20041;-76
2023/09/18 00:18:50;;;;;;;1.45;1.10;;;;;;;;;;5868016;28;20041;-75
2023/09/18 00:21:41;;;;;;;2.22;1.50;;;;;;;;;;5867472;28;20045;-77
2023/09/18 00:24:32;;;;;;;2.75;1.23;;;;;;;;;;5867627;28;20045;-75
2023/09/18 00:27:23;;;;;;;3.08;1.77;;;;;;;;;;5867590;28;20491;-75
2023/09/18 00:30:14;;;;;;;1.45;0.90;;;;;;;;;;5867423;28;20048;-76
2023/09/18 00:33:04;;;;;;;4.32;1.95;;;;;;;;;;5867641;28;20385;-74
2023/09/18 00:35:55;;;;;;;1.20;1.10;;;;;;;;;;5867670;28;20037;-75
2023/09/18 00:38:47;;;;;;;4.10;1.90;;;;;;;;;;5867473;28;20042;-76
2023/09/18 00:41:38;;;;;;;2.65;1.77;;;;;;;;;;5867276;28;20484;-74
2023/09/18 00:44:28;;;;;;;1.48;1.25;;;;;;;;;;5865888;28;20041;-77
2023/09/18 00:47:19;;;;;;;1.58;1.48;;;;;;;;;;5867152;28;20048;-75
2023/09/18 00:50:13;;;;;;;2.35;2.15;;;;;;;;;;5867152;28;20076;-75
2023/09/18 00:53:04;;;;;;;1.23;1.08;;;;;;;;;;5865945;28;20041;-76
2023/09/18 00:55:58;;;;;;;1.52;1.42;;;;;;;;;;5867562;28;20045;-76
2023/09/18 00:58:50;;;;;;;1.77;1.55;;;;;;;;;;5867048;28;20385;-76
2023/09/18 01:01:42;;;;;;;0.98;0.98;;;;;;;;;;5866760;28;20045;-76
2023/09/18 01:04:34;;;;;;;2.22;1.55;;;;;;;;;;5865615;28;20108;-75
2023/09/18 01:07:25;;;;;;;1.10;0.95;;;;;;;;;;5866749;28;20045;-77
2023/09/18 01:10:24;;;;;;;1.80;1.15;;;;;;;;;;5866434;28;20064;-75
2023/09/18 01:13:23;;;;;;;2.83;1.48;;;;;;;;;;5881700;28;20076;-77
2023/09/18 01:16:34;;;;;;;2.78;1.35;;;;;;;;;;5866486;28;20041;-76
2023/09/18 01:19:54;;;;;;;1.45;1.35;;;;;;;;;;5857245;28;20685;-76
2023/09/18 01:22:45;;;;;;;1.13;0.95;;;;;;;;;;5857712;28;20041;-76
2023/09/18 01:25:36;;;;;;;2.30;1.85;;;;;;;;;;5866483;28;20069;-75
2023/09/18 01:28:26;;;;;;;1.42;1.33;;;;;;;;;;5854783;28;20042;-74
2023/09/18 01:31:18;;;;;;;1.20;1.10;;;;;;;;;;5843270;28;20049;-75
2023/09/18 01:34:10;;;;;;;3.45;1.95;;;;;;;;;;5843132;28;20136;-76
2023/09/18 01:37:00;;;;;;;1.58;1.33;;;;;;;;;;5842301;28;20057;-75
2023/09/18 01:39:53;;;;;;;3.50;2.05;;;;;;;;;;5843216;28;20120;-76
2023/09/18 01:42:45;;;;;;;2.70;1.55;;;;;;;;;;5842834;28;20040;-75
2023/09/18 01:45:37;;;;;;;3.28;1.42;;;;;;;;;;5841512;28;20056;-75
2023/09/18 01:48:27;;;;;;;1.70;1.60;;;;;;;;;;5842725;28;20037;-76
2023/09/18 01:51:18;;;;;;;1.35;1.25;;;;;;;;;;5841409;28;20057;-75
2023/09/18 01:54:09;;;;;;;2.17;1.75;;;;;;;;;;5842688;28;20045;-74
2023/09/18 01:57:00;;;;;;;3.72;1.45;;;;;;;;;;5843208;28;20386;-76
2023/09/18 01:59:51;;;;;;;2.05;1.27;;;;;;;;;;5842897;28;20034;-74
2023/09/18 02:02:42;;;;;;;2.55;2.00;;;;;;;;;;5842550;28;20045;-76
2023/09/18 02:05:53;;;;;;;1.23;1.13;;;;;;;;;;5842538;28;20180;-75
2023/09/18 02:08:44;;;;;;;1.02;0.93;;;;;;;;;;5842403;28;20069;-77
2023/09/18 02:11:38;;;;;;;1.85;1.45;;;;;;;;;;5842223;28;20042;-76
2023/09/18 02:14:31;;;;;;;1.90;1.30;;;;;;;;;;5842387;28;20056;-75
2023/09/18 02:17:21;;;;;;;1.90;1.52;;;;;;;;;;5842302;28;20117;-75
2023/09/18 02:20:12;;;;;;;2.13;1.67;;;;;;;;;;5842030;28;20042;-75
2023/09/18 02:23:03;;;;;;;1.77;1.42;;;;;;;;;;5842378;28;20120;-76
2023/09/18 02:25:58;;;;;;;2.92;1.38;;;;;;;;;;5842438;28;20042;-77
2023/09/18 02:28:51;;;;;;;3.97;1.95;;;;;;;;;;5841739;28;20038;-75
2023/09/18 02:31:42;;;;;;;2.80;1.83;;;;;;;;;;5840494;28;20478;-78
2023/09/18 02:34:33;;;;;;;2.75;1.90;;;;;;;;;;5841929;28;20057;-75
2023/09/18 02:37:24;;;;;;;5.22;1.90;;;;;;;;;;5841816;28;20070;-76
2023/09/18 02:40:15;;;;;;;5.45;1.10;;;;;;;;;;5841732;28;20042;-77
2023/09/18 02:43:06;;;;;;;1.58;1.23;;;;;;;;;;5841837;28;20050;-77
2023/09/18 02:45:56;;;;;;;1.73;1.50;;;;;;;;;;5842050;28;20034;-77
2023/09/18 02:48:47;;;;;;;5.90;2.40;;;;;;;;;;5841804;28;20095;-74
2023/09/18 02:51:38;;;;;;;1.48;1.38;;;;;;;;;;5841678;28;20041;-75
2023/09/18 02:54:29;;;;;;;1.70;1.55;;;;;;;;;;5841441;28;20041;-74
2023/09/18 02:57:20;;;;;;;1.67;1.50;;;;;;;;;;5841506;28;20476;-77
2023/09/18 03:00:11;;;;;;;2.65;1.60;;;;;;;;;;5841370;28;20048;-75
2023/09/18 03:03:02;;;;;;;1.52;1.42;;;;;;;;;;5856685;28;20053;-76
2023/09/18 03:06:02;;;;;;;1.90;1.40;;;;;;;;;;5841842;28;20048;-74
2023/09/18 03:08:52;;;;;;;1.75;1.50;;;;;;;;;;5840391;28;20049;-76
2023/09/18 03:11:44;;;;;;;3.25;1.83;;;;;;;;;;5839817;28;20488;-76
2023/09/18 03:14:34;;;;;;;2.47;1.38;;;;;;;;;;5841209;28;20049;-75
2023/09/18 03:17:26;;;;;;;2.67;1.98;;;;;;;;;;5841227;28;20567;-75
2023/09/18 03:20:17;;;;;;;0.98;0.90;;;;;;;;;;5841674;28;20056;-76
2023/09/18 03:23:08;;;;;;;1.80;1.52;;;;;;;;;;5863991;28;20045;-75
2023/09/18 03:25:59;;;;;;;4.85;2.08;;;;;;;;;;5864372;28;20075;-74
2023/09/18 03:28:50;;;;;;;2.35;2.15;;;;;;;;;;5864176;28;20042;-74
2023/09/18 03:31:42;;;;;;;1.42;1.33;;;;;;;;;;5863742;28;20200;-77
2023/09/18 03:34:33;;;;;;;1.65;1.52;;;;;;;;;;5863815;28;20044;-75
2023/09/18 03:37:24;;;;;;;4.22;1.55;;;;;;;;;;5863963;28;20485;-75
2023/09/18 03:40:16;;;;;;;1.83;1.63;;;;;;;;;;5879059;28;20052;-76
2023/09/18 03:43:08;;;;;;;1.15;1.05;;;;;;;;;;5882435;28;20519;-77
2023/09/18 03:46:06;;;;;;;2.20;1.98;;;;;;;;;;5877779;28;20064;-76
2023/09/18 03:48:58;;;;;;;1.77;1.67;;;;;;;;;;5884415;28;20037;-75
2023/09/18 03:51:48;;;;;;;6.78;2.65;;;;;;;;;;5889549;28;20040;-75
2023/09/18 03:54:39;;;;;;;2.80;2.22;;;;;;;;;;5891468;28;20071;-75
2023/09/18 03:57:30;;;;;;;6.60;2.47;;;;;;;;;;5891409;28;20045;-76
2023/09/18 04:00:22;;;;;;;1.65;1.40;;;;;;;;;;5891377;28;20053;-75
2023/09/18 04:03:14;;;;;;;4.65;1.80;;;;;;;;;;5890086;28;20056;-75
2023/09/18 04:06:05;;;;;;;2.05;1.20;;;;;;;;;;5890251;28;20053;-76
2023/09/18 04:08:55;;;;;;;2.22;1.75;;;;;;;;;;5891956;28;20045;-75
2023/09/18 04:11:46;;;;;;;1.52;1.42;;;;;;;;;;5891136;28;20087;-75
2023/09/18 04:14:37;;;;;;;1.67;1.58;;;;;;;;;;5891302;28;20048;-75
2023/09/18 04:17:28;;;;;;;5.15;2.40;;;;;;;;;;5891049;28;20119;-75
2023/09/18 04:20:18;;;;;;;3.95;2.20;;;;;;;;;;5891062;28;20049;-73
2023/09/18 04:23:25;;;;;;;1.60;1.50;;;;;;;;;;5891002;28;20522;-75
2023/09/18 04:26:16;;;;;;;1.63;1.52;;;;;;;;;;5889519;28;20059;-76
2023/09/18 04:29:06;;;;;;;5.35;2.22;;;;;;;;;;5890943;28;20116;-75
2023/09/18 04:31:57;;;;;;;5.45;2.28;;;;;;;;;;5906671;28;20432;-73
2023/09/18 04:34:48;;;;;;;3.15;2.17;;;;;;;;;;5890704;28;20095;-76
2023/09/18 04:37:39;;;;;;;3.15;1.70;;;;;;;;;;5890900;28;20069;-75
2023/09/18 04:40:32;;;;;;;2.72;1.65;;;;;;;;;;5889302;28;20488;-75
2023/09/18 04:43:24;;;;;;;2.88;2.03;;;;;;;;;;5890395;28;20120;-76
2023/09/18 04:46:15;;;;;;;1.60;1.42;;;;;;;;;;5890329;28;20045;-75
2023/09/18 04:49:06;;;;;;;5.93;2.50;;;;;;;;;;5890544;28;20045;-75
2023/09/18 04:51:57;;;;;;;2.78;2.42;;;;;;;;;;5889159;28;20064;-75
2023/09/18 04:54:48;;;;;;;2.97;2.17;;;;;;;;;;5890265;28;20065;-75
2023/09/18 04:57:39;;;;;;;12.90;2.05;;;;;;;;;;5890425;28;20048;-75
2023/09/18 05:00:29;;;;;;;1.70;1.58;;;;;;;;;;5888856;28;20045;-76
2023/09/18 05:03:21;;;;;;;3.67;2.15;;;;;;;;;;5890172;28;20080;-74
2023/09/18 05:06:12;;;;;;;4.13;2.50;;;;;;;;;;5890024;28;20041;-76
2023/09/18 05:09:03;;;;;;;2.45;1.98;;;;;;;;;;5888723;28;20044;-77
2023/09/18 05:11:54;;;;;;;5.80;1.73;;;;;;;;;;5890353;28;20052;-74
2023/09/18 05:14:44;;;;;;;2.65;2.33;;;;;;;;;;5889736;28;20041;-74
2023/09/18 05:17:44;;;;;;;3.85;3.15;;;;;;;;;;5889833;28;20041;-76
2023/09/18 05:20:35;;;;;;;3.97;3.10;;;;;;;;;;5889798;28;20072;-75
2023/09/18 05:23:26;;;;;;;4.63;1.85;;;;;;;;;;5889794;28;20048;-75
2023/09/18 05:26:17;;;;;;;3.90;3.45;;;;;;;;;;5888267;28;20060;-75
2023/09/18 05:29:10;;;;;;;3.03;2.70;;;;;;;;;;5888290;28;20048;-75
2023/09/18 05:32:00;;;;;;;3.08;2.63;;;;;;;;;;5889668;28;20122;-76
2023/09/18 05:34:51;;;;;;;4.28;3.33;;;;;;;;;;5889859;28;20048;-75
2023/09/18 05:37:42;;;;;;;10.88;2.85;;;;;;;;;;5889425;28;20051;-76
2023/09/18 05:40:33;;;;;;;6.68;3.20;;;;;;;;;;5889287;28;20044;-77
2023/09/18 05:43:23;;;;;;;8.30;2.75;;;;;;;;;;5889158;28;20037;-75
2023/09/18 05:46:14;;;;;;;3.30;2.13;;;;;;;;;;5889126;28;20041;-75
2023/09/18 05:49:05;;;;;;;4.15;2.95;;;;;;;;;;5889251;28;20043;-75
2023/09/18 05:51:56;;;;;;;3.88;3.25;;;;;;;;;;5889504;28;20041;-77
2023/09/18 05:54:46;;;;;;;10.38;4.72;;;;;;;;;;5888948;28;20412;-77
2023/09/18 05:57:37;;;;;;;3.53;2.60;;;;;;;;;;5887760;28;20041;-75
2023/09/18 06:00:30;;;;;;;5.53;3.63;;;;;;;;;;5888920;28;20078;-77
2023/09/18 06:03:21;;;;;;;3.17;2.88;;;;;;;;;;5888697;28;20127;-76
2023/09/18 06:06:12;;;;;;;3.17;2.67;;;;;;;;;;5887868;28;20190;-76
2023/09/18 06:09:03;;;;;;;3.28;2.67;;;;;;;;;;5888768;28;20033;-75
2023/09/18 06:11:54;;;;;;;6.25;3.28;;;;;;;;;;5888919;28;20048;-76
2023/09/18 06:14:46;;;;;;;5.00;3.70;;;;;;;;;;5888383;28;20071;-74
2023/09/18 06:17:43;;;;;;;3.47;2.78;;;;;;;;;;5888419;28;20636;-74
2023/09/18 06:20:34;;;;;;;4.57;2.72;;;;;;;;;;5886999;28;20045;-75
2023/09/18 06:23:25;;;;;;;4.53;2.97;;;;;;;;;;5888267;28;20049;-75
2023/09/18 06:26:16;;;;;;;18.67;3.20;;;;;;;;;;5888137;28;20365;-77
2023/09/18 06:29:09;;;;;;;5.63;3.20;;;;;;;;;;5888243;28;20044;-75
2023/09/18 06:32:00;;;;;;;3.30;2.28;;;;;;;;;;5888642;28;20060;-75
2023/09/18 06:34:51;;;;;;;10.00;4.18;;;;;;;;;;5888375;28;20037;-76
2023/09/18 06:37:42;;;;;;;7.47;3.35;;;;;;;;;;5886686;28;20037;-76
2023/09/18 06:40:33;;;;;;;3.17;2.55;;;;;;;;;;5887876;28;20483;-76
2023/09/18 06:43:24;;;;;;;3.97;2.80;;;;;;;;;;5887819;28;20419;-76
2023/09/18 06:46:14;;;;;;;1.92;1.67;;;;;;;;;;5887744;28;20041;-77
2023/09/18 06:49:05;;;;;;;2.58;2.38;;;;;;;;;;5887836;28;20041;-74
2023/09/18 06:51:56;;;;;;;5.07;2.88;;;;;;;;;;5888274;28;20095;-75
2023/09/18 06:54:46;;;;;;;2.78;2.05;;;;;;;;;;5886320;28;20044;-75
2023/09/18 06:57:37;;;;;;;1.83;1.65;;;;;;;;;;5887526;28;20041;-76
2023/09/18 07:00:28;;;;;;;2.97;2.15;;;;;;;;;;5886201;28;20456;-76
2023/09/18 07:03:19;;;;;;;2.80;2.03;;;;;;;;;;5887381;28;20048;-76
2023/09/18 07:06:15;;;;;;;4.18;1.65;;;;;;;;;;5887204;28;20045;-76
2023/09/18 07:09:07;;;;;;;2.75;1.70;;;;;;;;;;5887328;28;20045;-75
2023/09/18 07:11:58;;;;;;;2.83;2.13;;;;;;;;;;5886638;28;20441;-77
2023/09/18 07:14:49;;;;;;;2.17;1.88;;;;;;;;;;5887218;28;20044;-75
2023/09/18 07:17:40;;;;;;;2.58;2.00;;;;;;;;;;5887115;28;20045;-76
2023/09/18 07:20:32;;;;;;;2.58;1.70;;;;;;;;;;5887039;28;20041;-75
2023/09/18 07:23:22;;;;;;;1.90;1.60;;;;;;;;;;5887140;28;20064;-76
2023/09/18 07:26:13;;;;;;;2.22;1.73;;;;;;;;;;5885667;28;20045;-76
2023/09/18 07:29:04;;;;;;;2.20;1.60;;;;;;;;;;5887159;28;20044;-77
2023/09/18 07:31:55;;;;;;;3.55;2.28;;;;;;;;;;5885991;28;20041;-76
2023/09/18 07:34:47;;;;;;;2.88;2.03;;;;;;;;;;5886890;28;20052;-76
2023/09/18 07:37:38;;;;;;;3.08;2.00;;;;;;;;;;5885776;28;20040;-76
2023/09/18 07:40:28;;;;;;;2.50;1.63;;;;;;;;;;5886788;28;20041;-74
2023/09/18 07:43:20;;;;;;;6.28;2.00;;;;;;;;;;5885328;28;20045;-74
2023/09/18 07:46:10;;;;;;;1.90;1.30;;;;;;;;;;5886616;28;20037;-73
2023/09/18 07:49:01;;;;;;;2.22;1.40;;;;;;;;;;5886751;28;20044;-75
2023/09/18 07:51:52;;;;;;;2.45;1.52;;;;;;;;;;5887164;28;20048;-74
2023/09/18 07:54:44;;;;;;;3.42;1.65;;;;;;;;;;5901840;28;20414;-74
2023/09/18 07:57:35;;;;;;;2.28;1.60;;;;;;;;;;5885602;28;20045;-75
2023/09/18 08:00:26;;;;;;;2.80;1.90;;;;;;;;;;5885336;28;20041;-75
2023/09/18 08:03:17;;;;;;;2.90;1.88;;;;;;;;;;5886403;28;20057;-74
2023/09/18 08:06:08;;;;;;;2.45;1.80;;;;;;;;;;5886576;28;20471;-74
2023/09/18 08:09:00;;;;;;;5.53;1.95;;;;;;;;;;5887026;28;20037;-74
2023/09/18 08:11:55;;;;;;;4.25;2.00;;;;;;;;;;5886855;28;20052;-76
2023/09/18 08:14:46;;;;;;;2.00;1.42;;;;;;;;;;5886505;28;20044;-74
2023/09/18 08:17:37;;;;;;;7.60;1.60;;;;;;;;;;5886660;28;20384;-74
2023/09/18 08:20:28;;;;;;;2.35;1.73;;;;;;;;;;5886324;28;20095;-74
2023/09/18 08:23:19;;;;;;;3.47;2.20;;;;;;;;;;5886448;28;20048;-72
2023/09/18 08:26:10;;;;;;;2.00;1.45;;;;;;;;;;5886298;28;20052;-75
2023/09/18 08:29:01;;;;;;;2.88;1.75;;;;;;;;;;5889644;28;20472;-74
2023/09/18 08:31:51;;;;;;;1.70;1.40;;;;;;;;;;5891127;28;20037;-74
2023/09/18 08:34:43;;;;;;;2.47;1.67;;;;;;;;;;5889051;28;20083;-75
2023/09/18 08:37:33;;;;;;;2.17;1.75;;;;;;;;;;5890699;28;20048;-75
2023/09/18 08:40:25;;;;;;;4.72;1.77;;;;;;;;;;5888881;28;20045;-74
2023/09/18 08:43:17;;;;;;;2.47;1.55;;;;;;;;;;5888891;28;20052;-74
2023/09/18 08:46:09;;;;;;;2.50;1.40;;;;;;;;;;5890092;28;20072;-74
2023/09/18 08:49:01;;;;;;;3.60;2.10;;;;;;;;;;5890600;28;20041;-75
2023/09/18 08:51:54;;;;;;;1.67;1.42;;;;;;;;;;5890472;28;20361;-76
2023/09/18 08:54:46;;;;;;;1.70;1.30;;;;;;;;;;5890197;28;20052;-74
2023/09/18 08:57:39;;;;;;;1.85;1.50;;;;;;;;;;5890182;28;20040;-73
2023/09/18 09:00:30;;;;;;;2.42;1.48;;;;;;;;;;5888507;28;20624;-74
2023/09/18 09:03:20;;;;;;;2.65;1.70;;;;;;;;;;5888487;28;20049;-76
2023/09/18 09:06:14;;;;;;;2.03;1.42;;;;;;;;;;5889779;28;20047;-75
2023/09/18 09:09:05;;;;;;;6.97;1.60;;;;;;;;;;5888767;28;20147;-75
2023/09/18 09:11:56;;;;;;;4.10;1.90;;;;;;;;;;5890440;28;20491;-74
2023/09/18 09:15:08;;;;;;;9.32;1.65;;;;;;;;;;5889534;28;20040;-75
2023/09/18 09:18:07;;;;;;;1.42;1.17;;;;;;;;;;5889930;28;20407;-73
2023/09/18 09:21:01;;;;;;;3.17;1.70;;;;;;;;;;5889648;28;20461;-74
2023/09/18 09:23:53;;;;;;;3.88;1.30;;;;;;;;;;5889765;28;20120;-75
2023/09/18 09:26:58;;;;;;;5.32;1.88;;;;;;;;;;5887868;28;20576;-73
2023/09/18 09:30:04;;;;;;;4.13;2.33;;;;;;;;;;5889320;28;20045;-75
2023/09/18 09:32:57;;;;;;;2.28;1.75;;;;;;;;;;5889497;28;20033;-74
2023/09/18 09:35:48;;;;;;;3.92;2.42;;;;;;;;;;5887937;28;20472;-73
2023/09/18 09:38:39;;;;;;;4.00;2.20;;;;;;;;;;5871569;28;20055;-74
2023/09/18 09:41:31;;;;;;;2.65;1.77;;;;;;;;;;5887539;28;20488;-73
2023/09/18 09:44:22;;;;;;;1.55;1.45;;;;;;;;;;5887568;28;20098;-74
2023/09/18 09:47:14;;;;;;;3.58;2.33;;;;;;;;;;5889113;28;20116;-74
2023/09/18 09:50:10;;;;;;;2.97;2.03;;;;;;;;;;5888866;28;20037;-74
2023/09/18 09:53:03;;;;;;;4.28;1.73;;;;;;;;;;5887832;28;20044;-77
2023/09/18 09:55:55;;;;;;;3.08;1.70;;;;;;;;;;5889199;28;20483;-75
2023/09/18 09:59:02;;;;;;;2.55;1.83;;;;;;;;;;5887443;28;20079;-75
2023/09/18 10:01:53;;;;;;;2.42;1.83;;;;;;;;;;5888971;28;20033;-73
2023/09/18 10:04:47;;;;;;;2.10;1.35;;;;;;;;;;5888423;28;20071;-74
2023/09/18 10:07:38;;;;;;;1.63;1.52;;;;;;;;;;5888644;28;20407;-74
2023/09/18 10:10:34;;;;;;;4.35;1.67;;;;;;;;;;5887075;28;20041;-74
2023/09/18 10:13:38;;;;;;;3.05;2.13;;;;;;;;;;5888545;28;20044;-74
2023/09/18 10:16:31;;;;;;;2.75;1.70;;;;;;;;;;5888294;28;20453;-74
2023/09/18 10:19:48;;;;;;;2.28;1.33;;;;;;;;;;5886809;28;20186;-74
2023/09/18 10:22:43;;;;;;;3.07;1.93;;;;;;;;;;5864780;28;20068;-73
2023/09/18 10:25:35;;;;;;;4.28;2.60;;;;;;;;;;5886843;28;20427;-73
2023/09/18 10:28:27;;;;;;;4.43;2.03;;;;;;;;;;5886927;28;20037;-73
2023/09/18 10:31:19;;;;;;;2.85;1.45;;;;;;;;;;5887884;28;20045;-74
2023/09/18 10:34:12;;;;;;;2.50;1.75;;;;;;;;;;5886608;28;20045;-75
2023/09/18 10:37:07;;;;;;;22.02;1.75;;;;;;;;;;5886907;28;20468;-74
2023/09/18 10:39:59;;;;;;;3.55;2.63;;;;;;;;;;5887024;28;20037;-74
2023/09/18 10:42:54;;;;;;;2.40;1.63;;;;;;;;;;5886562;28;20045;-75
2023/09/18 10:45:45;;;;;;;4.32;2.15;;;;;;;;;;5886317;28;20040;-75
2023/09/18 10:48:36;;;;;;;2.42;1.90;;;;;;;;;;5887560;28;20041;-75
2023/09/18 10:51:28;;;;;;;2.15;1.35;;;;;;;;;;5887059;28;20549;-75
2023/09/18 10:54:24;;;;;;;1.38;1.10;;;;;;;;;;5887545;28;20488;-74
2023/09/18 10:57:15;;;;;;;3.60;1.65;;;;;;;;;;5887305;28;20045;-74
2023/09/18 11:00:14;;;;;;;1.80;1.35;;;;;;;;;;5886077;28;20049;-73
2023/09/18 11:03:19;;;;;;;1.70;1.48;;;;;;;;;;5886098;28;20119;-74
2023/09/18 11:06:14;;;;;;;3.08;1.85;;;;;;;;;;5887191;28;20400;-75
2023/09/18 11:09:09;;;;;;;5.22;1.50;;;;;;;;;;5886274;28;20496;-75
2023/09/18 11:12:02;;;;;;;2.63;1.45;;;;;;;;;;5887626;28;20048;-75
2023/09/18 11:14:56;;;;;;;3.05;1.75;;;;;;;;;;5887151;28;20522;-75
2023/09/18 11:27:57;;;;;;;3.85;2.05;;;;;;;;;;5876138;28;20389;-75
2023/09/18 11:30:58;;;;;;;1.80;1.08;;;;;;;;;;5837986;28;20038;-77
2023/09/18 11:33:52;;;;;;;2.35;1.50;;;;;;;;;;5836698;28;20050;-76
2023/09/18 11:36:43;;;;;;;2.33;2.05;;;;;;;;;;5852648;28;20053;-75
2023/09/18 11:39:41;;;;;;;2.97;2.35;;;;;;;;;;5837813;28;20129;-75
2023/09/18 11:42:32;;;;;;;2.55;1.73;;;;;;;;;;5837701;28;20177;-75
2023/09/18 11:45:24;;;;;;;6.28;1.65;;;;;;;;;;5837454;28;20050;-76
2023/09/18 11:48:15;;;;;;;7.05;1.73;;;;;;;;;;5837523;28;20045;-76
2023/09/18 11:51:10;;;;;;;6.63;2.95;;;;;;;;;;5852416;28;20042;-76
2023/09/18 11:54:03;;;;;;;2.35;1.33;;;;;;;;;;5837541;28;20057;-78
2023/09/18 11:56:54;;;;;;;1.83;1.52;;;;;;;;;;5852613;28;20097;-76
2023/09/18 11:59:46;;;;;;;2.20;1.80;;;;;;;;;;5837431;28;20093;-77
2023/09/18 12:02:42;;;;;;;2.00;1.63;;;;;;;;;;5837327;28;20045;-76
2023/09/18 12:05:35;;;;;;;3.75;2.30;;;;;;;;;;5851712;28;20046;-76
2023/09/18 12:08:29;;;;;;;13.82;2.00;;;;;;;;;;5851967;28;20100;-76
2023/09/18 12:11:21;;;;;;;3.40;1.30;;;;;;;;;;5837102;28;20057;-77
2023/09/18 12:14:14;;;;;;;2.42;1.45;;;;;;;;;;5837164;28;20049;-75
2023/09/18 12:17:04;;;;;;;4.93;1.38;;;;;;;;;;5837260;28;20046;-74
2023/09/18 12:19:55;;;;;;;2.00;1.38;;;;;;;;;;5837523;28;20393;-73
2023/09/18 12:22:49;;;;;;;2.75;1.95;;;;;;;;;;5836841;28;20057;-75
2023/09/18 12:25:40;;;;;;;2.72;1.67;;;;;;;;;;5851402;28;20053;-74
2023/09/18 12:28:31;;;;;;;2.42;1.75;;;;;;;;;;5851895;28;20052;-76
2023/09/18 12:31:22;;;;;;;2.25;1.52;;;;;;;;;;5851581;28;20042;-73
2023/09/18 12:34:21;;;;;;;2.50;1.30;;;;;;;;;;5836757;28;20176;-73
2023/09/18 12:37:14;;;;;;;1.27;1.02;;;;;;;;;;5832329;28;20048;-74
2023/09/18 12:40:10;;;;;;;2.33;1.55;;;;;;;;;;5821461;28;20042;-75
2023/09/18 12:43:02;;;;;;;1.52;1.33;;;;;;;;;;5835729;28;20096;-75
2023/09/18 12:45:54;;;;;;;1.30;1.20;;;;;;;;;;5836180;28;20062;-75
2023/09/18 12:48:49;;;;;;;1.77;1.17;;;;;;;;;;5820030;28;20493;-74
2023/09/18 12:51:40;;;;;;;4.85;1.70;;;;;;;;;;5821057;28;20124;-75
2023/09/18 12:54:37;;;;;;;3.03;1.55;;;;;;;;;;5830407;28;20049;-74
2023/09/18 12:57:28;;;;;;;2.25;1.33;;;;;;;;;;5843302;28;20045;-75
2023/09/18 13:00:26;;;;;;;2.13;1.48;;;;;;;;;;5856413;28;20054;-73
2023/09/18 13:03:18;;;;;;;1.45;0.98;;;;;;;;;;5826770;28;20049;-73
2023/09/18 13:06:15;;;;;;;1.85;1.20;;;;;;;;;;5830616;28;20057;-74
2023/09/18 13:09:23;;;;;;;1.95;1.30;;;;;;;;;;5828967;28;20057;-74
2023/09/18 13:12:14;;;;;;;;;;;;;;;;;;5830721;28;20050;-74
2023/09/18 13:15:08;;;;;;;7.13;1.80;;;;;;;;;;5831797;28;19928;-74
2023/09/18 13:18:09;;;;;;;3.15;2.08;;;;;;;;;;5843078;28;20073;-75
2023/09/18 13:21:00;;;;;;;6.65;2.58;;;;;;;;;;5853475;28;20540;-74
2023/09/18 13:23:51;;;;;;;2.47;1.05;;;;;;;;;;5848384;28;20049;-77
2023/09/18 13:26:42;;;;;;;1.38;1.17;;;;;;;;;;5845301;28;20073;-74
2023/09/18 13:29:32;;;;;;;2.28;1.58;;;;;;;;;;5860395;28;20506;-75
2023/09/18 13:32:23;;;;;;;1.13;1.02;;;;;;;;;;5866201;28;20373;-75
2023/09/18 13:35:18;;;;;;;2.40;1.45;;;;;;;;;;5854207;28;20041;-75
2023/09/18 13:38:14;;;;;;;2.47;1.42;;;;;;;;;;5866253;28;20049;-75
2023/09/18 13:41:05;;;;;;;1.60;1.38;;;;;;;;;;5850326;28;20069;-74
2023/09/18 13:43:56;;;;;;;2.28;1.95;;;;;;;;;;5852609;28;20091;-74
2023/09/18 13:46:47;;;;;;;4.15;1.50;;;;;;;;;;5859430;28;20049;-75
2023/09/18 13:49:37;;;;;;;2.90;1.33;;;;;;;;;;5838197;28;20552;-74
2023/09/18 13:52:34;;;;;;;1.75;1.33;;;;;;;;;;5819529;28;20042;-74
2023/09/18 13:55:25;;;;;;;3.07;1.80;;;;;;;;;;5805791;28;20034;-77
2023/09/18 13:58:17;;;;;;;1.88;1.23;;;;;;;;;;5817433;28;20485;-75
2023/09/18 14:01:08;;;;;;;1.75;1.45;;;;;;;;;;5818834;28;20152;-76
2023/09/18 14:03:59;;;;;;;2.42;1.50;;;;;;;;;;5819898;28;20596;-74
